Terminal Aerodrome Forecast
Issued by NWS

Home | Current Version | Previous Version | Text Only | Print | Product List | Glossary On
Versions: 1 2 3 4 5 6 7 8 9 10 11 12 13 14 15 16 17 18 19
266
FTUS43 KDLH 221733
TAFHIB
TAF
KHIB 221733Z 2218/2318 31014G24KT P6SM VCSH BKN050
     FM230000 31011KT P6SM SCT035
     FM231000 VRB03KT 3SM BR SCT080
     FM231400 VRB03KT P6SM SCT045=

USA.gov is the U.S. government's official web portal to all federal, state and local government web resources and services.